Terminal Aerodrome Forecast
Issued by NWS

Home | Current Version | Previous Version | Text Only | Print | Product List | Glossary On
Versions: 1 2 3 4 5 6 7 8 9 10 11 12 13 14 15 16 17 18 19
740
FTUS43 KGRR 241740
TAFBTL
TAF
KBTL 241740Z 2418/2518 20014G21KT P6SM VCTS BKN050CB
     FM250000 22010KT P6SM BKN070
     FM250300 23007KT 3SM BR BKN050
     FM251400 30007KT P6SM SCT250=

USA.gov is the U.S. government's official web portal to all federal, state and local government web resources and services.